createdAt,value
2022-12-23T00:03:04.323Z,6.12
2022-12-23T00:08:10.585Z,6.10
2022-12-23T00:13:35.133Z,6.10
2022-12-23T00:18:40.860Z,6.17
2022-12-23T00:23:48.136Z,6.19
2022-12-23T00:28:53.437Z,6.19
2022-12-23T00:33:58.957Z,6.24
2022-12-23T00:39:36.712Z,6.27
2022-12-23T00:44:41.442Z,6.30
2022-12-23T00:49:47.054Z,6.31
2022-12-23T00:54:51.097Z,6.29
2022-12-23T00:59:55.883Z,6.30
2022-12-23T01:05:18.982Z,6.36
2022-12-23T01:10:24.019Z,6.47
2022-12-23T01:15:29.002Z,6.53
2022-12-23T01:20:33.221Z,6.53
2022-12-23T01:25:38.196Z,6.53
2022-12-23T01:30:42.890Z,6.53
2022-12-23T01:35:47.693Z,6.58
2022-12-23T01:40:53.760Z,6.63
2022-12-23T01:45:58.982Z,6.60
2022-12-23T01:51:10.166Z,6.59
2022-12-23T01:56:42.164Z,6.58
2022-12-23T02:02:05.275Z,6.54
2022-12-23T02:07:29.335Z,6.50
2022-12-23T02:13:09.625Z,6.41
2022-12-23T02:18:18.254Z,6.31
2022-12-23T02:23:40.926Z,6.25
2022-12-23T02:29:04.217Z,6.24
2022-12-23T02:34:18.150Z,6.21
2022-12-23T02:39:34.764Z,6.09
2022-12-23T02:45:04.687Z,6.06
2022-12-23T02:50:35.218Z,6.12
2022-12-23T02:55:42.705Z,6.14
2022-12-23T03:00:47.359Z,6.16
2022-12-23T03:05:52.243Z,6.22
2022-12-23T03:11:18.304Z,6.21
2022-12-23T03:16:36.575Z,6.21
2022-12-23T03:22:00.288Z,6.15
2022-12-23T03:27:17.109Z,6.06
2022-12-23T03:32:25.557Z,6.01
2022-12-23T03:37:33.696Z,5.98
2022-12-23T03:42:46.138Z,5.99
2022-12-23T03:48:20.490Z,5.90
2022-12-23T03:53:37.283Z,5.79
2022-12-23T03:58:56.380Z,5.76
2022-12-23T04:04:10.353Z,5.71
2022-12-23T04:09:21.762Z,5.66
2022-12-23T04:14:27.980Z,5.61
2022-12-23T04:19:34.970Z,5.55
2022-12-23T04:24:40.598Z,5.47
2022-12-23T04:29:47.405Z,5.37
2022-12-23T04:34:53.175Z,5.32
2022-12-23T04:39:58.835Z,5.31
2022-12-23T04:45:03.643Z,5.33
2022-12-23T04:50:09.348Z,5.42
2022-12-23T04:55:15.153Z,5.45
2022-12-23T05:00:20.227Z,5.44
2022-12-23T05:05:24.802Z,5.40
2022-12-23T05:10:29.658Z,5.45
2022-12-23T05:15:34.983Z,5.48
2022-12-23T05:20:38.957Z,5.46
2022-12-23T05:25:44.500Z,5.48
2022-12-23T05:30:49.946Z,5.48
2022-12-23T05:35:54.978Z,5.47
2022-12-23T05:40:59.748Z,5.41
2022-12-23T05:46:03.695Z,5.34
2022-12-23T05:51:07.607Z,5.31
2022-12-23T05:56:11.328Z,5.29
2022-12-23T06:01:15.440Z,5.27
2022-12-23T06:06:19.778Z,5.28
2022-12-23T06:11:23.745Z,5.32
2022-12-23T06:16:27.790Z,5.34
2022-12-23T06:21:32.611Z,5.32
2022-12-23T06:26:36.378Z,5.30
2022-12-23T06:31:40.157Z,5.30
2022-12-23T06:36:44.676Z,5.32
2022-12-23T06:41:48.461Z,5.31
2022-12-23T06:46:53.291Z,5.34
2022-12-23T06:51:58.820Z,5.36
2022-12-23T06:57:03.421Z,5.43
2022-12-23T07:02:10.511Z,5.46
2022-12-23T07:07:15.291Z,5.48
2022-12-23T07:12:20.290Z,5.45
2022-12-23T07:17:24.660Z,5.48
2022-12-23T07:22:28.173Z,5.44
2022-12-23T07:27:32.312Z,5.46
2022-12-23T07:32:36.031Z,5.50
2022-12-23T07:37:39.726Z,5.57
2022-12-23T07:42:46.033Z,5.60
2022-12-23T07:47:54.971Z,5.59
2022-12-23T07:52:58.616Z,5.53
2022-12-23T07:58:03.038Z,5.50
2022-12-23T08:03:07.744Z,5.46
2022-12-23T08:08:11.956Z,5.41
2022-12-23T08:13:16.580Z,5.45
2022-12-23T08:18:21.367Z,5.43
2022-12-23T08:23:27.898Z,5.38
2022-12-23T08:28:32.916Z,5.35
2022-12-23T08:33:40.988Z,5.39
2022-12-23T08:38:46.184Z,5.46
2022-12-23T08:43:50.821Z,5.50
2022-12-23T08:48:56.286Z,5.52
2022-12-23T08:54:01.910Z,5.55
2022-12-23T08:59:06.511Z,5.61
2022-12-23T09:04:11.161Z,5.72
2022-12-23T09:09:16.840Z,5.67
2022-12-23T09:14:21.476Z,5.66
2022-12-23T09:19:26.460Z,5.69
2022-12-23T09:24:30.791Z,5.69
2022-12-23T09:29:35.273Z,5.78
2022-12-23T09:34:40.603Z,5.87
2022-12-23T09:39:45.416Z,5.87
2022-12-23T09:45:16.936Z,5.91
2022-12-23T09:50:33.302Z,5.93
2022-12-23T09:55:56.366Z,6.03
2022-12-23T10:01:12.630Z,6.18
2022-12-23T10:06:26.310Z,6.37
2022-12-23T10:11:43.027Z,6.50
2022-12-23T10:16:53.518Z,6.68
2022-12-23T10:22:03.411Z,6.87
2022-12-23T10:27:25.592Z,6.99
2022-12-23T10:32:51.325Z,7.06
2022-12-23T10:38:04.885Z,7.12
2022-12-23T10:43:22.273Z,7.11
2022-12-23T10:48:44.891Z,7.12
2022-12-23T10:54:07.202Z,7.14
2022-12-23T10:59:17.235Z,7.14
2022-12-23T11:04:38.389Z,7.14
2022-12-23T11:09:52.246Z,7.14
2022-12-23T11:14:58.913Z,7.07
2022-12-23T11:20:16.569Z,6.98
2022-12-23T11:31:08.999Z,6.92
2022-12-23T11:36:14.171Z,6.92
2022-12-23T11:41:24.764Z,6.92
2022-12-23T11:46:33.136Z,6.90
2022-12-23T11:51:38.336Z,6.82
2022-12-23T11:56:42.942Z,6.76
2022-12-23T12:01:50.158Z,6.76
2022-12-23T12:06:56.764Z,6.77
2022-12-23T12:12:14.993Z,6.83
2022-12-23T12:17:23.641Z,6.88
2022-12-23T12:22:37.879Z,6.85
2022-12-23T12:27:46.534Z,6.85
2022-12-23T12:33:05.927Z,6.88
2022-12-23T12:38:26.088Z,6.92
2022-12-23T12:43:36.532Z,6.98
2022-12-23T12:48:49.522Z,7.02
2022-12-23T12:54:06.733Z,7.07
2022-12-23T12:59:18.573Z,7.12
2022-12-23T13:04:43.918Z,7.13
2022-12-23T13:10:05.825Z,7.15
2022-12-23T13:15:20.295Z,7.14
2022-12-23T13:21:00.788Z,7.16
2022-12-23T13:26:19.879Z,7.16
2022-12-23T13:31:39.192Z,7.16
2022-12-23T13:36:50.094Z,7.11
2022-12-23T13:42:04.600Z,7.14
2022-12-23T13:47:29.867Z,7.11
2022-12-23T13:52:48.423Z,7.11
2022-12-23T13:58:03.175Z,7.13
2022-12-23T14:03:10.219Z,7.11
2022-12-23T14:08:20.382Z,7.10
2022-12-23T14:13:29.599Z,7.08
2022-12-23T14:18:45.440Z,7.13
2022-12-23T14:24:24.893Z,7.19
2022-12-23T14:29:57.500Z,7.22
2022-12-23T14:35:17.944Z,7.25
2022-12-23T14:40:39.824Z,7.25
2022-12-23T14:45:44.045Z,7.23
2022-12-23T14:51:02.204Z,7.24
2022-12-23T14:56:12.647Z,7.25
2022-12-23T15:01:21.814Z,7.25
2022-12-23T15:06:40.067Z,7.28
2022-12-23T15:11:44.109Z,7.36
2022-12-23T15:16:47.945Z,7.40
2022-12-23T15:22:03.226Z,7.44
2022-12-23T15:27:29.786Z,7.44
2022-12-23T15:32:34.556Z,7.47
2022-12-23T15:37:40.640Z,7.49
2022-12-23T15:42:49.784Z,7.47
2022-12-23T15:47:53.944Z,7.47
2022-12-23T15:53:07.386Z,7.49
2022-12-23T15:58:24.568Z,7.46
2022-12-23T16:03:39.893Z,7.48
2022-12-23T16:08:44.383Z,7.52
2022-12-23T16:14:01.185Z,7.53
2022-12-23T16:19:06.543Z,7.51
2022-12-23T16:24:10.952Z,7.58
2022-12-23T16:29:15.940Z,7.63
2022-12-23T16:34:19.799Z,7.74
2022-12-23T16:39:24.839Z,7.77
2022-12-23T16:44:30.165Z,7.77
2022-12-23T16:49:38.011Z,7.74
2022-12-23T16:54:42.893Z,7.76
2022-12-23T16:59:48.352Z,7.79
2022-12-23T17:04:54.622Z,7.83
2022-12-23T17:10:04.870Z,7.78
2022-12-23T17:15:24.615Z,7.77
2022-12-23T17:20:27.916Z,7.80
2022-12-23T17:25:32.203Z,7.84
2022-12-23T17:30:38.024Z,7.83
2022-12-23T17:35:42.118Z,7.84
2022-12-23T17:40:49.397Z,7.81
2022-12-23T17:45:53.742Z,7.74
2022-12-23T17:50:58.169Z,7.72
2022-12-23T17:56:02.399Z,7.73
2022-12-23T18:01:07.315Z,7.68
2022-12-23T18:06:14.976Z,7.64
2022-12-23T18:11:34.187Z,7.64
2022-12-23T18:16:39.820Z,7.66
2022-12-23T18:21:47.745Z,7.72
2022-12-23T18:26:53.342Z,7.77
2022-12-23T18:31:58.021Z,7.82
2022-12-23T18:37:02.557Z,7.79
2022-12-23T18:42:06.911Z,7.74
2022-12-23T18:47:12.094Z,7.74
2022-12-23T18:52:16.496Z,7.73
2022-12-23T18:57:21.760Z,7.68
2022-12-23T19:02:26.402Z,7.65
2022-12-23T19:07:32.444Z,7.66
2022-12-23T19:12:37.805Z,7.62
2022-12-23T19:17:42.241Z,7.57
2022-12-23T19:22:47.335Z,7.55
2022-12-23T19:27:51.717Z,7.53
2022-12-23T19:32:56.002Z,7.45
2022-12-23T19:38:01.217Z,7.33
2022-12-23T19:43:06.232Z,7.31
2022-12-23T19:48:16.499Z,7.30
2022-12-23T19:53:25.140Z,7.28
2022-12-23T19:58:36.971Z,7.28
2022-12-23T20:03:45.084Z,7.30
2022-12-23T20:08:53.808Z,7.28
2022-12-23T20:14:04.001Z,7.31
2022-12-23T20:19:08.671Z,7.35
2022-12-23T20:24:13.759Z,7.37
2022-12-23T20:29:17.533Z,7.36
2022-12-23T20:34:21.210Z,7.32
2022-12-23T20:39:25.299Z,7.27
2022-12-23T20:44:37.210Z,7.21
2022-12-23T20:49:41.126Z,7.02
2022-12-23T20:54:45.760Z,6.97
2022-12-23T20:59:50.239Z,7.00
2022-12-23T21:04:53.940Z,7.01
2022-12-23T21:09:58.022Z,6.98
2022-12-23T21:15:01.642Z,6.95
2022-12-23T21:20:07.922Z,6.94
2022-12-23T21:25:13.320Z,6.88
2022-12-23T21:30:17.136Z,6.75
2022-12-23T21:35:21.564Z,6.55
2022-12-23T21:40:25.848Z,6.50
2022-12-23T21:45:29.889Z,6.45
2022-12-23T21:50:34.847Z,6.43
2022-12-23T21:55:40.423Z,6.50
2022-12-23T22:00:47.380Z,6.52
2022-12-23T22:05:54.784Z,6.38
2022-12-23T22:11:00.737Z,6.34
2022-12-23T22:16:05.899Z,6.37
2022-12-23T22:21:12.331Z,6.39
2022-12-23T22:26:24.133Z,6.42
2022-12-23T22:31:32.100Z,6.47
2022-12-23T22:36:37.813Z,6.48
2022-12-23T22:41:41.501Z,6.45
2022-12-23T22:46:45.650Z,6.35
2022-12-23T22:51:50.080Z,6.28
2022-12-23T22:56:54.146Z,6.31
2022-12-23T23:01:58.026Z,6.34
2022-12-23T23:07:02.623Z,6.34
2022-12-23T23:12:06.313Z,6.41
2022-12-23T23:17:12.076Z,6.36
2022-12-23T23:22:19.937Z,6.28
2022-12-23T23:27:26.630Z,6.33
2022-12-23T23:32:32.668Z,6.38
2022-12-23T23:37:39.712Z,6.37
2022-12-23T23:42:51.857Z,6.41
2022-12-23T23:48:01.102Z,6.45
2022-12-23T23:53:07.878Z,6.44
2022-12-23T23:58:13.693Z,6.42
